Terminal Aerodrome Forecast
Issued by NWS

Home | Current Version | Previous Version | Text Only | Print | Product List | Glossary On
Versions: 1 2 3 4 5 6 7 8 9 10 11 12 13 14 15 16 17 18 19 20 21 22 23 24 25 26 27
000
FTAK31 PAFA 161738
TAFAUN
TAF
PAUN 161738Z 1618/1718 09007KT P6SM OVC080
     FM162100 12009KT P6SM VCSH BKN035 BKN100
     FM170300 12009KT P6SM VCSH BKN060 BKN100
     FM170600 14006KT P6SM BKN120=

USA.gov is the U.S. government's official web portal to all federal, state and local government web resources and services.